< < Back
Terminal Aerodrome Forecast


Current Version              Previous Versions:   1  2  3  4  5  6  7  8  9  

Terminal Aerodrome Forecast

998
FTUS42 KFFC 022331
TAFMCN
TAF
KMCN 022331Z 0300/0324 22009KT P6SM SCT050
     FM030300 23008KT P6SM VCSH BKN040
      TEMPO 0304/0308 VRB15G25KT 4SM TSRA BR BKN025CB
     FM030800 25004KT 5SM BR SCT009 BKN015
     FM031200 24005KT P6SM BKN007
     FM031500 27009KT P6SM OVC015 PROB30 0318/0322 -TSRA BKN030CB=

Latest METAR

419
SAUS80 KWBC 022300 RRA
MTRMCN
METAR KMCN 022253Z 22007KT 10SM SCT050 28/18 A2990 RMK AO2 SLP119
T02780178


USA.gov is the U.S. government's official web portal to all federal, state and local government web resources and services.